Time;durP1;ratioP1;P1;durP2;ratioP2;P2;SDS_P1;SDS_P2;PMS_P1;PMS_P2;Temp;Humidity;BMP_temperature;BMP_pressure;BME280_temperature;BME280_humidity;BME280_pressure;Samples;Min_cycle;Max_cycle;Signal;HPM_P1;HPM_P2
2022/03/29 00:01:41;;;;;;;74.28;30.27;;;;;;;;;;5075169;28;20171;-63
2022/03/29 00:04:08;;;;;;;74.45;29.02;;;;;;;;;;5075765;28;20168;-62
2022/03/29 00:06:34;;;;;;;72.95;29.60;;;;;;;;;;5074083;28;20069;-62
2022/03/29 00:09:01;;;;;;;81.60;30.25;;;;;;;;;;5072146;28;20068;-62
2022/03/29 00:11:27;;;;;;;71.50;29.35;;;;;;;;;;5072832;28;20542;-63
2022/03/29 00:13:53;;;;;;;75.80;30.88;;;;;;;;;;5072078;28;20053;-62
2022/03/29 00:16:20;;;;;;;75.35;29.48;;;;;;;;;;5073013;28;20091;-63
2022/03/29 00:18:50;;;;;;;65.22;29.92;;;;;;;;;;5072535;28;20092;-63
2022/03/29 00:21:16;;;;;;;76.28;30.35;;;;;;;;;;5089066;28;20143;-63
2022/03/29 00:23:44;;;;;;;68.78;29.05;;;;;;;;;;5092879;28;20092;-62
2022/03/29 00:26:10;;;;;;;66.18;30.75;;;;;;;;;;5093651;28;20083;-63
2022/03/29 00:28:36;;;;;;;85.93;29.75;;;;;;;;;;5079875;28;20151;-62
2022/03/29 00:31:03;;;;;;;71.45;30.38;;;;;;;;;;5072744;28;20139;-62
2022/03/29 00:33:29;;;;;;;64.55;26.67;;;;;;;;;;5088470;28;20115;-63
2022/03/29 00:35:55;;;;;;;68.40;29.42;;;;;;;;;;5093360;28;20140;-63
2022/03/29 00:38:22;;;;;;;59.60;26.83;;;;;;;;;;5092644;28;20139;-62
2022/03/29 00:40:48;;;;;;;66.22;28.98;;;;;;;;;;5093181;28;20062;-62
2022/03/29 00:43:15;;;;;;;65.55;28.48;;;;;;;;;;5080127;28;20071;-63
2022/03/29 00:45:41;;;;;;;67.38;29.10;;;;;;;;;;5073573;28;20059;-62
2022/03/29 00:48:08;;;;;;;70.68;29.08;;;;;;;;;;5067918;28;20052;-62
2022/03/29 00:50:38;;;;;;;72.82;29.25;;;;;;;;;;5069929;28;20140;-62
2022/03/29 00:53:05;;;;;;;70.20;28.85;;;;;;;;;;5080023;28;20176;-63
2022/03/29 00:55:31;;;;;;;68.57;30.30;;;;;;;;;;5090035;28;20041;-63
2022/03/29 00:57:59;;;;;;;64.88;29.15;;;;;;;;;;5088730;28;20561;-62
2022/03/29 01:00:25;;;;;;;72.80;31.70;;;;;;;;;;5089466;28;20044;-63
2022/03/29 01:02:52;;;;;;;70.43;31.55;;;;;;;;;;5079805;28;20901;-62
2022/03/29 01:05:18;;;;;;;70.30;30.60;;;;;;;;;;5069716;28;20053;-62
2022/03/29 01:07:45;;;;;;;68.88;29.55;;;;;;;;;;5073743;28;20087;-63
2022/03/29 01:10:11;;;;;;;70.00;30.05;;;;;;;;;;5090062;28;20463;-62
2022/03/29 01:12:38;;;;;;;68.35;29.48;;;;;;;;;;5082978;28;20148;-63
2022/03/29 01:15:08;;;;;;;73.47;31.70;;;;;;;;;;5069054;28;20056;-63
2022/03/29 01:17:41;;;;;;;68.57;28.48;;;;;;;;;;5072035;28;20148;-63
2022/03/29 01:20:11;;;;;;;59.15;27.20;;;;;;;;;;5088805;28;20142;-62
2022/03/29 01:22:41;;;;;;;67.10;28.40;;;;;;;;;;5081502;28;20072;-61
2022/03/29 01:25:09;;;;;;;69.55;29.10;;;;;;;;;;5072485;28;20052;-61
2022/03/29 01:27:36;;;;;;;62.55;28.67;;;;;;;;;;5085994;28;20136;-61
2022/03/29 01:30:02;;;;;;;60.38;27.20;;;;;;;;;;5067957;28;20080;-60
2022/03/29 01:32:29;;;;;;;56.97;26.60;;;;;;;;;;5080131;28;20156;-61
2022/03/29 01:34:57;;;;;;;57.17;26.00;;;;;;;;;;5078053;28;20049;-61
2022/03/29 01:37:24;;;;;;;60.03;28.23;;;;;;;;;;5068086;28;20719;-62
2022/03/29 01:39:50;;;;;;;64.22;27.73;;;;;;;;;;5067683;28;20053;-61
2022/03/29 01:42:18;;;;;;;61.70;27.90;;;;;;;;;;5068158;28;20143;-62
2022/03/29 01:44:44;;;;;;;57.95;28.27;;;;;;;;;;5071742;28;20538;-62
2022/03/29 01:47:11;;;;;;;55.72;26.88;;;;;;;;;;5066878;28;20056;-61
2022/03/29 01:49:37;;;;;;;54.35;26.30;;;;;;;;;;5066911;28;20150;-61
2022/03/29 01:52:04;;;;;;;58.97;27.20;;;;;;;;;;5071185;28;20558;-62
2022/03/29 01:54:31;;;;;;;58.20;25.65;;;;;;;;;;5079983;28;20168;-62
2022/03/29 01:56:57;;;;;;;59.75;26.67;;;;;;;;;;5086570;28;20052;-61
2022/03/29 01:59:23;;;;;;;68.15;29.25;;;;;;;;;;5070372;28;20049;-62
2022/03/29 02:01:50;;;;;;;78.53;29.05;;;;;;;;;;5068034;28;20567;-62
2022/03/29 02:04:17;;;;;;;59.75;26.20;;;;;;;;;;5069040;28;20084;-62
2022/03/29 02:06:43;;;;;;;62.08;27.80;;;;;;;;;;5080158;28;20430;-61
2022/03/29 02:09:12;;;;;;;73.93;29.50;;;;;;;;;;5067914;28;20100;-62
2022/03/29 02:11:42;;;;;;;73.88;28.00;;;;;;;;;;5066796;28;20053;-62
2022/03/29 02:14:09;;;;;;;72.47;28.52;;;;;;;;;;5067023;28;20063;-62
2022/03/29 02:16:35;;;;;;;68.85;28.42;;;;;;;;;;5071632;28;20604;-62
2022/03/29 02:19:02;;;;;;;64.65;26.63;;;;;;;;;;5072198;28;20169;-62
2022/03/29 02:21:28;;;;;;;54.85;25.23;;;;;;;;;;5067841;28;20104;-62
2022/03/29 02:23:54;;;;;;;73.03;27.52;;;;;;;;;;5068033;28;20057;-61
2022/03/29 02:26:21;;;;;;;62.88;27.23;;;;;;;;;;5071841;28;20061;-62
2022/03/29 02:28:47;;;;;;;69.70;28.20;;;;;;;;;;5068420;28;20168;-62
2022/03/29 02:31:13;;;;;;;66.50;28.35;;;;;;;;;;5073838;28;20084;-62
2022/03/29 02:33:40;;;;;;;61.40;27.75;;;;;;;;;;5084515;28;20052;-62
2022/03/29 02:36:07;;;;;;;59.72;26.02;;;;;;;;;;5074438;28;20143;-62
2022/03/29 02:38:34;;;;;;;56.05;25.08;;;;;;;;;;5071111;28;20156;-62
2022/03/29 02:41:00;;;;;;;54.42;24.65;;;;;;;;;;5067712;28;20048;-63
2022/03/29 02:43:26;;;;;;;59.72;26.75;;;;;;;;;;5073740;28;20460;-62
2022/03/29 02:45:53;;;;;;;61.25;27.02;;;;;;;;;;5066702;28;20053;-62
2022/03/29 02:48:19;;;;;;;79.68;27.75;;;;;;;;;;5076080;28;20126;-63
2022/03/29 02:50:46;;;;;;;58.80;24.90;;;;;;;;;;5088084;28;20058;-63
2022/03/29 02:53:14;;;;;;;59.88;26.65;;;;;;;;;;5071344;28;20199;-62
2022/03/29 02:55:41;;;;;;;60.17;25.73;;;;;;;;;;5070290;28;20048;-63
2022/03/29 02:58:08;;;;;;;66.75;24.38;;;;;;;;;;5083257;28;20145;-63
2022/03/29 03:00:34;;;;;;;59.42;26.58;;;;;;;;;;5087929;28;20135;-64
2022/03/29 03:03:03;;;;;;;61.35;27.00;;;;;;;;;;5081097;28;20057;-62
2022/03/29 03:05:29;;;;;;;59.20;26.33;;;;;;;;;;5085564;28;20538;-63
2022/03/29 03:07:56;;;;;;;66.25;27.50;;;;;;;;;;5085791;28;20466;-63
2022/03/29 03:10:23;;;;;;;58.10;25.30;;;;;;;;;;5066942;28;20148;-62
2022/03/29 03:12:50;;;;;;;60.08;26.77;;;;;;;;;;5071449;28;20061;-62
2022/03/29 03:15:18;;;;;;;74.47;28.50;;;;;;;;;;5087232;28;20139;-62
2022/03/29 03:17:45;;;;;;;65.78;26.35;;;;;;;;;;5075235;28;20529;-62
2022/03/29 03:20:12;;;;;;;59.72;25.40;;;;;;;;;;5083632;28;20061;-62
2022/03/29 03:22:39;;;;;;;68.07;27.33;;;;;;;;;;5084510;28;20068;-62
2022/03/29 03:25:07;;;;;;;65.47;26.42;;;;;;;;;;5067068;28;20055;-62
2022/03/29 03:27:34;;;;;;;60.80;26.83;;;;;;;;;;5067075;28;20080;-62
2022/03/29 03:30:01;;;;;;;74.45;27.80;;;;;;;;;;5078329;28;20143;-62
2022/03/29 03:32:27;;;;;;;61.47;26.40;;;;;;;;;;5086493;28;20101;-62
2022/03/29 03:34:54;;;;;;;71.55;25.75;;;;;;;;;;5086730;28;20143;-62
2022/03/29 03:37:20;;;;;;;65.97;26.05;;;;;;;;;;5087014;28;20155;-62
2022/03/29 03:39:47;;;;;;;64.45;25.00;;;;;;;;;;5086161;28;20139;-62
2022/03/29 03:42:13;;;;;;;58.72;25.05;;;;;;;;;;5087973;28;20053;-62
2022/03/29 03:44:39;;;;;;;55.72;23.00;;;;;;;;;;5068128;28;20144;-61
2022/03/29 03:47:07;;;;;;;48.70;23.58;;;;;;;;;;5066442;28;20106;-62
2022/03/29 03:49:34;;;;;;;54.45;22.85;;;;;;;;;;5067272;28;20107;-62
2022/03/29 03:52:01;;;;;;;58.10;24.27;;;;;;;;;;5066247;28;20585;-62
2022/03/29 03:54:27;;;;;;;57.22;24.35;;;;;;;;;;5077001;28;20045;-62
2022/03/29 03:56:53;;;;;;;57.08;25.10;;;;;;;;;;5066462;28;20056;-62
2022/03/29 03:59:20;;;;;;;54.08;24.52;;;;;;;;;;5070439;28;20049;-62
2022/03/29 04:01:46;;;;;;;56.45;24.02;;;;;;;;;;5084068;28;20473;-62
2022/03/29 04:04:13;;;;;;;58.97;23.67;;;;;;;;;;5069099;28;20663;-62
2022/03/29 04:06:39;;;;;;;61.60;25.33;;;;;;;;;;5071160;28;20506;-62
2022/03/29 04:09:05;;;;;;;54.90;24.65;;;;;;;;;;5078544;28;20080;-62
2022/03/29 04:11:32;;;;;;;47.90;21.90;;;;;;;;;;5069534;28;20143;-62
2022/03/29 04:13:58;;;;;;;50.95;23.27;;;;;;;;;;5070655;28;20963;-63
2022/03/29 04:16:25;;;;;;;54.30;23.20;;;;;;;;;;5067098;28;20057;-63
2022/03/29 04:18:52;;;;;;;53.45;24.23;;;;;;;;;;5070713;28;20063;-62
2022/03/29 04:21:18;;;;;;;53.35;22.27;;;;;;;;;;5085195;28;20059;-62
2022/03/29 04:23:44;;;;;;;55.88;23.15;;;;;;;;;;5076441;28;20195;-62
2022/03/29 04:26:11;;;;;;;57.42;23.27;;;;;;;;;;5070194;28;20072;-62
2022/03/29 04:28:37;;;;;;;51.88;22.83;;;;;;;;;;5071121;28;20503;-63
2022/03/29 04:31:04;;;;;;;50.63;21.98;;;;;;;;;;5075526;28;20053;-62
2022/03/29 04:33:30;;;;;;;47.80;22.40;;;;;;;;;;5077934;28;20191;-62
2022/03/29 04:35:57;;;;;;;51.40;22.13;;;;;;;;;;5068766;28;20049;-62
2022/03/29 04:38:23;;;;;;;55.67;23.85;;;;;;;;;;5070114;28;20139;-62
2022/03/29 04:40:49;;;;;;;50.15;22.80;;;;;;;;;;5079434;28;20511;-62
2022/03/29 04:43:16;;;;;;;51.28;22.55;;;;;;;;;;5074502;28;20056;-62
2022/03/29 04:45:42;;;;;;;51.55;21.50;;;;;;;;;;5081063;28;20139;-62
2022/03/29 04:48:10;;;;;;;46.95;21.88;;;;;;;;;;5070977;28;20061;-62
2022/03/29 04:50:37;;;;;;;44.13;20.85;;;;;;;;;;5073073;28;20064;-62
2022/03/29 04:53:03;;;;;;;49.28;22.30;;;;;;;;;;5076889;28;20115;-62
2022/03/29 04:55:30;;;;;;;46.40;21.45;;;;;;;;;;5070960;28;20147;-62
2022/03/29 04:57:57;;;;;;;50.63;22.23;;;;;;;;;;5068188;28;20140;-62
2022/03/29 05:00:23;;;;;;;46.97;21.55;;;;;;;;;;5076174;28;20147;-62
2022/03/29 05:02:49;;;;;;;46.22;22.50;;;;;;;;;;5077065;28;20192;-62
2022/03/29 05:05:16;;;;;;;43.92;20.60;;;;;;;;;;5069610;28;20902;-62
2022/03/29 05:07:42;;;;;;;44.58;20.35;;;;;;;;;;5069437;28;20144;-62
2022/03/29 05:10:09;;;;;;;44.03;20.23;;;;;;;;;;5073153;28;20143;-62
2022/03/29 05:12:39;;;;;;;41.92;19.58;;;;;;;;;;5075292;28;20144;-62
2022/03/29 05:15:06;;;;;;;38.20;18.77;;;;;;;;;;5069153;28;20131;-62
2022/03/29 05:17:33;;;;;;;43.25;21.55;;;;;;;;;;5088766;28;20135;-62
2022/03/29 05:20:00;;;;;;;43.75;19.45;;;;;;;;;;5077042;28;20063;-62
2022/03/29 05:22:26;;;;;;;41.97;20.23;;;;;;;;;;5085209;28;20076;-62
2022/03/29 05:24:53;;;;;;;39.03;19.65;;;;;;;;;;5069635;28;20110;-61
2022/03/29 05:27:19;;;;;;;41.05;19.92;;;;;;;;;;5068832;28;20071;-61
2022/03/29 05:29:45;;;;;;;41.50;20.02;;;;;;;;;;5067261;28;20135;-61
2022/03/29 05:32:12;;;;;;;44.05;19.40;;;;;;;;;;5076608;28;20057;-61
2022/03/29 05:34:39;;;;;;;45.53;20.83;;;;;;;;;;5072947;28;20143;-62
2022/03/29 05:37:05;;;;;;;40.70;19.50;;;;;;;;;;5086313;28;20060;-62
2022/03/29 05:39:31;;;;;;;41.88;20.63;;;;;;;;;;5081007;28;20523;-61
2022/03/29 05:41:58;;;;;;;39.55;20.52;;;;;;;;;;5073712;28;20231;-61
2022/03/29 05:44:24;;;;;;;41.08;19.50;;;;;;;;;;5070823;28;20049;-61
2022/03/29 05:49:35;;;;;;;43.17;20.00;;;;;;;;;;5085397;28;20155;-62
2022/03/29 05:52:02;;;;;;;43.28;21.05;;;;;;;;;;5076946;28;20173;-61
2022/03/29 05:54:28;;;;;;;44.60;20.88;;;;;;;;;;5087111;28;20110;-61
2022/03/29 05:56:55;;;;;;;43.50;19.88;;;;;;;;;;5067940;28;20052;-61
2022/03/29 05:59:21;;;;;;;223.90;30.90;;;;;;;;;;5067957;28;20053;-61
2022/03/29 06:01:47;;;;;;;43.78;20.52;;;;;;;;;;5067497;28;20523;-62
2022/03/29 06:04:14;;;;;;;43.50;20.65;;;;;;;;;;5067301;28;20053;-62
2022/03/29 06:06:41;;;;;;;39.70;19.98;;;;;;;;;;5075588;28;20049;-62
2022/03/29 06:09:07;;;;;;;43.15;20.20;;;;;;;;;;5085873;28;20098;-61
2022/03/29 06:11:33;;;;;;;42.92;20.75;;;;;;;;;;5075200;28;20072;-61
2022/03/29 06:14:01;;;;;;;43.00;20.30;;;;;;;;;;5082733;28;20164;-60
2022/03/29 06:16:28;;;;;;;41.25;19.67;;;;;;;;;;5070299;28;20562;-61
2022/03/29 06:18:54;;;;;;;48.40;20.80;;;;;;;;;;5083704;28;20139;-62
2022/03/29 06:21:22;;;;;;;44.75;20.52;;;;;;;;;;5073405;28;20053;-63
2022/03/29 06:23:48;;;;;;;42.58;22.02;;;;;;;;;;5087704;28;20151;-63
2022/03/29 06:26:15;;;;;;;45.47;20.25;;;;;;;;;;5087118;28;20067;-63
2022/03/29 06:28:42;;;;;;;42.58;20.08;;;;;;;;;;5081064;28;20144;-62
2022/03/29 06:31:09;;;;;;;43.25;19.35;;;;;;;;;;5078738;28;20076;-61
2022/03/29 06:33:35;;;;;;;40.67;20.20;;;;;;;;;;5067641;28;20045;-60
2022/03/29 06:36:02;;;;;;;41.95;20.58;;;;;;;;;;5067836;28;20049;-61
2022/03/29 06:38:31;;;;;;;42.50;21.13;;;;;;;;;;5072243;28;20076;-61
2022/03/29 06:40:59;;;;;;;41.70;19.60;;;;;;;;;;5081188;28;20708;-62
2022/03/29 06:43:25;;;;;;;41.40;19.98;;;;;;;;;;5076801;28;20498;-62
2022/03/29 06:45:52;;;;;;;38.30;18.23;;;;;;;;;;5075295;28;20140;-63
2022/03/29 06:48:18;;;;;;;40.72;19.45;;;;;;;;;;5067261;28;20057;-63
2022/03/29 06:50:45;;;;;;;41.22;19.15;;;;;;;;;;5067610;28;20131;-64
2022/03/29 06:53:11;;;;;;;38.72;19.73;;;;;;;;;;5068782;28;20136;-61
2022/03/29 06:55:37;;;;;;;40.60;19.98;;;;;;;;;;5068388;28;20140;-62
2022/03/29 06:58:04;;;;;;;39.05;19.88;;;;;;;;;;5068993;28;20242;-62
2022/03/29 07:00:30;;;;;;;40.60;19.80;;;;;;;;;;5081022;28;20084;-63
2022/03/29 07:02:57;;;;;;;45.20;19.50;;;;;;;;;;5094639;27;20079;-62
2022/03/29 07:05:23;;;;;;;45.10;20.60;;;;;;;;;;5076794;28;20061;-60
2022/03/29 07:07:50;;;;;;;42.83;20.25;;;;;;;;;;5078851;28;20111;-60
2022/03/29 07:13:02;;;;;;;40.50;19.58;;;;;;;;;;5074076;28;20171;-59
2022/03/29 07:15:29;;;;;;;38.70;19.45;;;;;;;;;;5078807;28;20191;-61
2022/03/29 07:17:55;;;;;;;43.00;21.30;;;;;;;;;;5070586;28;20546;-61
2022/03/29 07:20:22;;;;;;;41.05;19.48;;;;;;;;;;5084807;28;20067;-65
2022/03/29 07:22:49;;;;;;;41.53;19.75;;;;;;;;;;5079065;28;20161;-61
2022/03/29 07:25:18;;;;;;;41.33;19.90;;;;;;;;;;5083198;28;20057;-61
2022/03/29 07:27:45;;;;;;;39.15;18.35;;;;;;;;;;5086189;28;20539;-60
2022/03/29 07:30:11;;;;;;;41.60;20.45;;;;;;;;;;5089436;28;20576;-61
2022/03/29 07:32:44;;;;;;;35.03;16.90;;;;;;;;;;5080397;28;20214;-60
2022/03/29 07:35:11;;;;;;;43.17;21.50;;;;;;;;;;5078509;28;20485;-60
2022/03/29 07:37:37;;;;;;;38.10;18.55;;;;;;;;;;5074610;28;20498;-60
2022/03/29 07:40:04;;;;;;;44.45;19.27;;;;;;;;;;5081683;28;20515;-60
2022/03/29 07:42:32;;;;;;;35.67;17.92;;;;;;;;;;5066189;28;20053;-60
2022/03/29 07:44:58;;;;;;;42.55;18.00;;;;;;;;;;5071565;28;20131;-60
2022/03/29 07:47:25;;;;;;;43.25;18.85;;;;;;;;;;5074220;28;20566;-60
2022/03/29 07:50:12;;;;;;;37.20;17.98;;;;;;;;;;5078128;28;20056;-60
2022/03/29 07:52:59;;;;;;;35.80;16.90;;;;;;;;;;5076184;28;20926;-60
2022/03/29 07:55:26;;;;;;;33.35;16.83;;;;;;;;;;5068881;28;20056;-60
2022/03/29 07:58:07;;;;;;;36.17;17.88;;;;;;;;;;5078199;28;20122;-60
2022/03/29 08:00:34;;;;;;;34.25;16.17;;;;;;;;;;5071216;28;20155;-60
2022/03/29 08:03:09;;;;;;;41.25;16.67;;;;;;;;;;5081224;28;20053;-60
2022/03/29 08:05:37;;;;;;;33.88;16.52;;;;;;;;;;5074110;28;20045;-60
2022/03/29 08:08:04;;;;;;;34.88;16.92;;;;;;;;;;5078806;28;20170;-61
2022/03/29 08:10:31;;;;;;;32.92;15.98;;;;;;;;;;5069141;28;20494;-60
2022/03/29 08:12:58;;;;;;;39.08;18.05;;;;;;;;;;5076327;28;20459;-60
2022/03/29 08:15:25;;;;;;;36.13;17.08;;;;;;;;;;5083803;28;20084;-61
2022/03/29 08:17:57;;;;;;;36.83;17.80;;;;;;;;;;5076431;28;20179;-60
2022/03/29 08:20:23;;;;;;;38.72;17.35;;;;;;;;;;5080253;28;20147;-60
2022/03/29 08:22:50;;;;;;;38.70;17.88;;;;;;;;;;5097049;27;20052;-60
2022/03/29 08:25:18;;;;;;;40.50;17.98;;;;;;;;;;5074559;28;20531;-61
2022/03/29 08:27:45;;;;;;;35.38;15.52;;;;;;;;;;5073757;28;20057;-60
2022/03/29 08:30:12;;;;;;;38.60;17.70;;;;;;;;;;5077664;28;20041;-60
2022/03/29 08:32:39;;;;;;;40.47;17.20;;;;;;;;;;5072229;28;20128;-60
2022/03/29 08:35:07;;;;;;;41.85;19.33;;;;;;;;;;5067356;28;20640;-60
2022/03/29 08:37:37;;;;;;;35.13;18.05;;;;;;;;;;5069528;28;20136;-60
2022/03/29 08:40:05;;;;;;;36.15;18.90;;;;;;;;;;5085021;28;20063;-61
2022/03/29 08:42:31;;;;;;;36.22;18.38;;;;;;;;;;5089530;28;20556;-60
2022/03/29 08:44:58;;;;;;;37.05;17.70;;;;;;;;;;5083217;28;20521;-60
2022/03/29 08:47:26;;;;;;;37.97;18.48;;;;;;;;;;5104409;28;20056;-61
2022/03/29 08:49:52;;;;;;;37.30;17.30;;;;;;;;;;5086915;27;20132;-61
2022/03/29 08:52:20;;;;;;;43.10;18.38;;;;;;;;;;5102247;28;20141;-61
2022/03/29 08:54:47;;;;;;;37.75;19.90;;;;;;;;;;5082394;28;20580;-60
2022/03/29 08:57:14;;;;;;;44.95;18.45;;;;;;;;;;5091287;28;20152;-60
2022/03/29 08:59:42;;;;;;;40.63;19.85;;;;;;;;;;5096503;28;20072;-60
2022/03/29 09:02:12;;;;;;;37.53;18.92;;;;;;;;;;5088580;28;20147;-59
2022/03/29 09:04:38;;;;;;;37.55;18.42;;;;;;;;;;5109642;27;20047;-61
2022/03/29 09:07:06;;;;;;;35.65;18.50;;;;;;;;;;5084287;28;20049;-63
2022/03/29 09:09:40;;;;;;;42.97;20.50;;;;;;;;;;5094559;28;20052;-62
2022/03/29 09:12:13;;;;;;;41.55;19.25;;;;;;;;;;5083033;28;20098;-62
2022/03/29 09:14:49;;;;;;;42.40;20.13;;;;;;;;;;5100001;27;20155;-63
2022/03/29 09:17:24;;;;;;;41.38;18.85;;;;;;;;;;5079290;28;20136;-63
2022/03/29 09:19:51;;;;;;;38.53;18.55;;;;;;;;;;5075494;28;20065;-63
2022/03/29 09:22:53;;;;;;;42.67;19.60;;;;;;;;;;5085950;28;20048;-67
2022/03/29 09:25:20;;;;;;;42.67;19.60;;;;;;;;;;5061742;28;20514;-64
2022/03/29 09:27:48;;;;;;;42.72;19.75;;;;;;;;;;5098665;28;21219;-64
2022/03/29 09:30:15;;;;;;;43.15;19.77;;;;;;;;;;5092382;27;20119;-64
2022/03/29 09:33:11;;;;;;;44.85;19.48;;;;;;;;;;5096069;27;20582;-64
2022/03/29 09:35:52;;;;;;;41.03;20.23;;;;;;;;;;5079617;28;20063;-63
2022/03/29 09:38:25;;;;;;;46.38;20.90;;;;;;;;;;5082943;28;20110;-63
2022/03/29 09:40:52;;;;;;;41.13;19.95;;;;;;;;;;5087291;27;20099;-64
2022/03/29 09:43:20;;;;;;;39.03;18.92;;;;;;;;;;5095304;28;20135;-63
2022/03/29 09:45:59;;;;;;;46.35;20.15;;;;;;;;;;5069274;28;20167;-64
2022/03/29 09:48:35;;;;;;;42.65;19.20;;;;;;;;;;5076472;28;20147;-64
2022/03/29 09:51:07;;;;;;;39.20;19.55;;;;;;;;;;5086979;28;20143;-63
2022/03/29 09:53:34;;;;;;;36.70;19.17;;;;;;;;;;5080225;27;20048;-64
2022/03/29 09:56:01;;;;;;;44.72;18.83;;;;;;;;;;5084857;28;20061;-64
2022/03/29 09:58:28;;;;;;;38.92;18.55;;;;;;;;;;5104755;27;20072;-64
2022/03/29 10:00:55;;;;;;;37.65;17.67;;;;;;;;;;5083041;28;20137;-62
2022/03/29 10:03:23;;;;;;;34.53;16.73;;;;;;;;;;5085874;28;20056;-62
2022/03/29 10:06:01;;;;;;;33.90;14.23;;;;;;;;;;5082419;28;20560;-62
2022/03/29 10:11:15;;;;;;;41.17;20.63;;;;;;;;;;5096723;28;20575;-61
2022/03/29 10:13:42;;;;;;;45.05;19.38;;;;;;;;;;5084520;28;20080;-62
2022/03/29 10:16:09;;;;;;;40.42;19.80;;;;;;;;;;5103109;28;20168;-61
2022/03/29 10:18:37;;;;;;;36.30;18.13;;;;;;;;;;5073576;28;20048;-62
2022/03/29 10:21:06;;;;;;;39.90;17.52;;;;;;;;;;5087150;28;20590;-62
2022/03/29 10:23:35;;;;;;;35.53;16.83;;;;;;;;;;5081639;28;20051;-61
2022/03/29 10:26:02;;;;;;;40.72;17.63;;;;;;;;;;5075019;28;20073;-65
2022/03/29 10:28:29;;;;;;;38.00;18.35;;;;;;;;;;5070772;28;20052;-64
2022/03/29 10:30:56;;;;;;;35.67;17.73;;;;;;;;;;5079138;28;20088;-64
2022/03/29 10:33:24;;;;;;;38.33;17.70;;;;;;;;;;5087068;28;20049;-64
2022/03/29 10:36:11;;;;;;;32.42;16.90;;;;;;;;;;5085444;28;20083;-64
2022/03/29 10:38:43;;;;;;;39.05;17.48;;;;;;;;;;5086372;28;20072;-64
2022/03/29 10:41:37;;;;;;;33.25;15.85;;;;;;;;;;5087789;28;20059;-64
2022/03/29 10:44:05;;;;;;;31.73;16.75;;;;;;;;;;5086596;28;20202;-64
2022/03/29 10:46:42;;;;;;;33.92;17.15;;;;;;;;;;5087455;28;20540;-63
2022/03/29 10:49:15;;;;;;;32.08;16.40;;;;;;;;;;5087554;28;20056;-64
2022/03/29 10:51:41;;;;;;;37.33;17.30;;;;;;;;;;5087110;28;20595;-66
2022/03/29 10:54:26;;;;;;;35.22;16.58;;;;;;;;;;5086957;28;20141;-64
2022/03/29 10:57:03;;;;;;;35.38;15.93;;;;;;;;;;5087084;28;20498;-64
2022/03/29 10:59:30;;;;;;;34.38;17.13;;;;;;;;;;5088211;28;20090;-64
2022/03/29 11:02:18;;;;;;;41.63;17.50;;;;;;;;;;5087587;28;20641;-65
2022/03/29 11:05:00;;;;;;;36.75;17.33;;;;;;;;;;5087389;28;20088;-64
2022/03/29 11:07:26;;;;;;;30.20;16.25;;;;;;;;;;5087338;28;20063;-64
2022/03/29 11:10:13;;;;;;;30.63;17.05;;;;;;;;;;5086976;28;20160;-64
2022/03/29 11:12:44;;;;;;;34.92;16.83;;;;;;;;;;5087008;28;20068;-64
2022/03/29 11:15:25;;;;;;;34.63;16.30;;;;;;;;;;5077149;28;20051;-64
2022/03/29 11:17:52;;;;;;;36.03;17.13;;;;;;;;;;5070958;28;20048;-64
2022/03/29 11:20:38;;;;;;;30.08;16.58;;;;;;;;;;5067538;28;20053;-63
2022/03/29 11:23:06;;;;;;;31.67;16.27;;;;;;;;;;5067813;28;20081;-63
2022/03/29 11:25:45;;;;;;;32.97;17.38;;;;;;;;;;5077811;28;20503;-63
2022/03/29 11:28:16;;;;;;;31.58;17.20;;;;;;;;;;5066762;28;20083;-64
2022/03/29 11:30:43;;;;;;;31.17;17.05;;;;;;;;;;5066944;28;20075;-64
2022/03/29 11:33:10;;;;;;;29.40;16.42;;;;;;;;;;5076681;28;20614;-63
2022/03/29 11:35:37;;;;;;;33.92;16.73;;;;;;;;;;5081893;28;20540;-63
2022/03/29 11:38:11;;;;;;;30.27;16.03;;;;;;;;;;5070275;28;20787;-63
2022/03/29 11:40:38;;;;;;;32.40;17.42;;;;;;;;;;5066447;28;20330;-63
2022/03/29 11:43:05;;;;;;;30.63;15.40;;;;;;;;;;5066070;28;20148;-63
2022/03/29 11:45:37;;;;;;;32.60;17.33;;;;;;;;;;5066271;28;20095;-63
2022/03/29 11:48:04;;;;;;;27.67;16.13;;;;;;;;;;5067016;28;20053;-64
2022/03/29 11:50:37;;;;;;;32.38;16.33;;;;;;;;;;5066757;28;20053;-63
2022/03/29 11:53:14;;;;;;;36.08;16.52;;;;;;;;;;5066566;28;20144;-64
2022/03/29 11:55:41;;;;;;;30.08;17.02;;;;;;;;;;5066035;28;20143;-64
2022/03/29 11:58:21;;;;;;;31.92;16.23;;;;;;;;;;5066131;28;20143;-63
2022/03/29 12:00:47;;;;;;;31.80;16.45;;;;;;;;;;5065945;28;20076;-63
2022/03/29 12:03:25;;;;;;;30.58;17.25;;;;;;;;;;5066092;28;20080;-63
2022/03/29 12:06:01;;;;;;;30.90;17.20;;;;;;;;;;5066164;28;20052;-63
2022/03/29 12:08:41;;;;;;;30.23;15.90;;;;;;;;;;5066302;28;20056;-62
2022/03/29 12:11:11;;;;;;;30.08;15.80;;;;;;;;;;5065862;28;20048;-62
2022/03/29 12:13:40;;;;;;;29.33;15.98;;;;;;;;;;5064921;28;20084;-64
2022/03/29 12:16:15;;;;;;;28.52;17.38;;;;;;;;;;5066197;28;20621;-64
2022/03/29 12:18:42;;;;;;;29.10;17.13;;;;;;;;;;5065748;28;20045;-63
2022/03/29 12:21:13;;;;;;;33.47;16.30;;;;;;;;;;5065659;28;20067;-64
2022/03/29 12:23:41;;;;;;;27.90;15.75;;;;;;;;;;5066132;28;20053;-64
2022/03/29 12:26:09;;;;;;;31.30;16.42;;;;;;;;;;5065972;28;20048;-63
2022/03/29 12:28:36;;;;;;;26.58;15.80;;;;;;;;;;5066188;28;20144;-64
2022/03/29 12:31:02;;;;;;;26.88;15.77;;;;;;;;;;5065883;28;20077;-63
2022/03/29 12:33:32;;;;;;;28.80;15.30;;;;;;;;;;5065704;28;20052;-64
2022/03/29 12:36:05;;;;;;;26.95;15.70;;;;;;;;;;5065192;28;20141;-64
2022/03/29 12:38:43;;;;;;;27.30;16.05;;;;;;;;;;5066041;28;20053;-63
2022/03/29 12:41:11;;;;;;;27.35;14.90;;;;;;;;;;5065577;28;20105;-64
2022/03/29 12:43:37;;;;;;;29.65;15.82;;;;;;;;;;5068499;28;20056;-63
2022/03/29 12:46:09;;;;;;;25.38;15.00;;;;;;;;;;5068861;28;20049;-64
2022/03/29 12:48:39;;;;;;;24.27;14.68;;;;;;;;;;5069602;28;20119;-64
2022/03/29 12:51:07;;;;;;;25.95;15.35;;;;;;;;;;5068419;28;20059;-63
2022/03/29 12:53:34;;;;;;;25.92;14.38;;;;;;;;;;5069346;28;20056;-64
2022/03/29 12:56:04;;;;;;;25.58;14.23;;;;;;;;;;5069342;28;20148;-64
2022/03/29 12:58:32;;;;;;;22.95;13.18;;;;;;;;;;5069287;28;20590;-64
2022/03/29 13:00:58;;;;;;;27.73;13.73;;;;;;;;;;5068752;28;20049;-64
2022/03/29 13:03:24;;;;;;;25.75;13.70;;;;;;;;;;5069419;28;20160;-64
2022/03/29 13:06:03;;;;;;;24.90;13.95;;;;;;;;;;5069080;28;20568;-63
2022/03/29 13:08:30;;;;;;;27.02;15.63;;;;;;;;;;5069004;28;20053;-63
2022/03/29 13:10:57;;;;;;;25.88;14.90;;;;;;;;;;5068651;28;20057;-62
2022/03/29 13:13:29;;;;;;;29.83;15.48;;;;;;;;;;5068405;28;20064;-63
2022/03/29 13:15:56;;;;;;;26.95;15.45;;;;;;;;;;5068560;28;20053;-62
2022/03/29 13:18:29;;;;;;;24.90;14.90;;;;;;;;;;5068897;28;20053;-63
2022/03/29 13:21:38;;;;;;;22.70;13.75;;;;;;;;;;5068582;28;20279;-63
2022/03/29 13:24:04;;;;;;;30.10;14.55;;;;;;;;;;5068238;28;20626;-63
2022/03/29 13:26:31;;;;;;;28.17;13.90;;;;;;;;;;5068804;28;20049;-63
2022/03/29 13:28:58;;;;;;;24.42;14.70;;;;;;;;;;5068325;28;20103;-63
2022/03/29 13:31:25;;;;;;;25.63;14.52;;;;;;;;;;5068242;28;20048;-63
2022/03/29 13:33:53;;;;;;;26.60;14.48;;;;;;;;;;5067789;28;20048;-63
2022/03/29 13:36:21;;;;;;;25.52;14.57;;;;;;;;;;5067710;28;20061;-63
2022/03/29 13:38:48;;;;;;;26.67;14.73;;;;;;;;;;5076515;28;20492;-63
2022/03/29 13:41:14;;;;;;;27.70;14.77;;;;;;;;;;5082838;28;20586;-65
2022/03/29 13:43:42;;;;;;;25.00;13.60;;;;;;;;;;5080535;28;20059;-62
2022/03/29 13:46:09;;;;;;;23.50;14.20;;;;;;;;;;5083109;28;20172;-62
2022/03/29 13:48:56;;;;;;;24.67;14.82;;;;;;;;;;5068718;28;20049;-63
2022/03/29 13:51:22;;;;;;;30.35;15.70;;;;;;;;;;5069024;28;20057;-63
2022/03/29 13:53:49;;;;;;;26.20;15.32;;;;;;;;;;5067078;28;20088;-63
2022/03/29 13:56:15;;;;;;;23.05;13.88;;;;;;;;;;5068001;28;20061;-63
2022/03/29 13:58:42;;;;;;;23.05;14.70;;;;;;;;;;5068498;28;20055;-63
2022/03/29 14:01:08;;;;;;;25.25;13.80;;;;;;;;;;5083181;28;20136;-61
2022/03/29 14:03:35;;;;;;;26.63;14.77;;;;;;;;;;5087096;28;20053;-61
2022/03/29 14:06:01;;;;;;;26.75;14.60;;;;;;;;;;5082649;28;20540;-61
2022/03/29 14:08:28;;;;;;;27.08;16.48;;;;;;;;;;5088822;28;20057;-61
2022/03/29 14:10:57;;;;;;;24.40;15.88;;;;;;;;;;5075793;28;20122;-61
2022/03/29 14:13:27;;;;;;;25.17;13.85;;;;;;;;;;5067793;28;20521;-61
2022/03/29 14:15:54;;;;;;;26.08;14.48;;;;;;;;;;5079919;28;20064;-61
2022/03/29 14:18:22;;;;;;;26.58;14.57;;;;;;;;;;5088503;28;20057;-61
2022/03/29 14:20:50;;;;;;;26.20;15.88;;;;;;;;;;5076726;28;20073;-61
2022/03/29 14:23:16;;;;;;;26.98;14.68;;;;;;;;;;5087078;28;20053;-61
2022/03/29 14:25:44;;;;;;;24.33;15.18;;;;;;;;;;5069889;28;20148;-61
2022/03/29 14:28:11;;;;;;;33.25;15.57;;;;;;;;;;5067370;28;20215;-61
2022/03/29 14:30:39;;;;;;;25.07;16.03;;;;;;;;;;5067608;28;20052;-61
2022/03/29 14:33:06;;;;;;;28.73;16.13;;;;;;;;;;5075332;28;20081;-61